createdAt,value
2019-02-05T00:00:38.085Z,985.92
2019-02-05T00:01:38.171Z,985.95
2019-02-05T00:02:38.065Z,985.99
2019-02-05T00:03:37.376Z,985.99
2019-02-05T00:04:37.896Z,985.98
2019-02-05T00:05:37.919Z,985.99
2019-02-05T00:06:37.317Z,985.99
2019-02-05T00:07:37.290Z,986.00
2019-02-05T00:08:37.359Z,986.02
2019-02-05T00:09:37.258Z,986.06
2019-02-05T00:10:37.228Z,986.05
2019-02-05T00:11:37.704Z,986.06
2019-02-05T00:12:37.688Z,986.08
2019-02-05T00:13:37.788Z,986.08
2019-02-05T00:14:37.659Z,986.09
2019-02-05T00:15:37.156Z,986.10
2019-02-05T00:16:37.069Z,986.11
2019-02-05T00:17:37.056Z,986.14
2019-02-05T00:18:37.711Z,986.15
2019-02-05T00:19:37.021Z,986.19
2019-02-05T00:20:37.015Z,986.17
2019-02-05T00:21:36.960Z,986.16
2019-02-05T00:22:37.641Z,986.21
2019-02-05T00:23:37.465Z,986.20
2019-02-05T00:24:37.519Z,986.18
2019-02-05T00:25:37.374Z,986.19
2019-02-05T00:26:37.342Z,986.20
2019-02-05T00:27:37.389Z,986.19
2019-02-05T00:28:37.305Z,986.20
2019-02-05T00:29:36.833Z,986.19
2019-02-05T00:30:37.420Z,986.17
2019-02-05T00:31:36.713Z,986.20
2019-02-05T00:32:36.672Z,986.20
2019-02-05T00:33:36.656Z,986.23
2019-02-05T00:34:36.659Z,986.20
2019-02-05T00:35:36.764Z,986.25
2019-02-05T00:36:36.614Z,986.20
2019-02-05T00:37:36.566Z,986.24
2019-02-05T00:38:36.645Z,986.27
2019-02-05T00:39:36.526Z,986.28
2019-02-05T00:40:37.055Z,986.29
2019-02-05T00:41:37.485Z,986.34
2019-02-05T00:42:36.547Z,986.30
2019-02-05T00:43:36.958Z,986.34
2019-02-05T00:44:36.406Z,986.38
2019-02-05T00:45:36.358Z,986.40
2019-02-05T00:46:36.367Z,986.39
2019-02-05T00:47:37.167Z,986.43
2019-02-05T00:48:36.867Z,986.43
2019-02-05T00:49:36.257Z,986.45
2019-02-05T00:50:36.474Z,986.49
2019-02-05T00:51:36.215Z,986.54
2019-02-05T00:52:36.302Z,986.50
2019-02-05T00:53:36.179Z,986.52
2019-02-05T00:54:36.690Z,986.55
2019-02-05T00:55:36.132Z,986.53
2019-02-05T00:56:37.031Z,986.58
2019-02-05T00:57:36.719Z,986.59
2019-02-05T00:58:36.965Z,986.64
2019-02-05T00:59:36.835Z,986.65
2019-02-05T01:00:36.930Z,986.66
2019-02-05T01:01:35.976Z,986.68
2019-02-05T01:02:36.778Z,986.70
2019-02-05T01:03:36.365Z,986.71
2019-02-05T01:04:35.887Z,986.70
2019-02-05T01:05:37.078Z,986.70
2019-02-05T01:06:36.093Z,986.71
2019-02-05T01:07:35.818Z,986.75
2019-02-05T01:08:36.106Z,986.76
2019-02-05T01:09:35.859Z,986.82
2019-02-05T01:10:36.909Z,986.82
2019-02-05T01:11:35.722Z,986.83
2019-02-05T01:12:36.195Z,986.90
2019-02-05T01:13:35.782Z,986.90
2019-02-05T01:14:35.657Z,986.90
2019-02-05T01:15:35.697Z,986.93
2019-02-05T01:16:35.667Z,986.91
2019-02-05T01:17:35.585Z,986.96
2019-02-05T01:18:36.195Z,986.97
2019-02-05T01:19:36.114Z,986.97
2019-02-05T01:20:36.091Z,987.02
2019-02-05T01:21:35.508Z,987.02
2019-02-05T01:22:35.460Z,987.02
2019-02-05T01:23:36.767Z,987.07
2019-02-05T01:24:35.606Z,987.11
2019-02-05T01:25:36.218Z,987.08
2019-02-05T01:26:36.286Z,987.14
2019-02-05T01:27:35.330Z,987.13
2019-02-05T01:28:35.827Z,987.15
2019-02-05T01:29:35.406Z,987.14
2019-02-05T01:30:35.858Z,987.18
2019-02-05T01:31:35.786Z,987.18
2019-02-05T01:32:35.737Z,987.17
2019-02-05T01:33:35.679Z,987.21
2019-02-05T01:34:35.250Z,987.22
2019-02-05T01:35:35.793Z,987.22
2019-02-05T01:36:35.109Z,987.25
2019-02-05T01:37:35.112Z,987.26
2019-02-05T01:38:35.617Z,987.30
2019-02-05T01:39:35.644Z,987.31
2019-02-05T01:40:35.663Z,987.32
2019-02-05T01:41:35.906Z,987.37
2019-02-05T01:42:35.507Z,987.39
2019-02-05T01:43:34.941Z,987.41
2019-02-05T01:44:34.982Z,987.43
2019-02-05T01:45:35.917Z,987.44
2019-02-05T01:46:34.898Z,987.47
2019-02-05T01:47:35.323Z,987.47
2019-02-05T01:48:35.552Z,987.50
2019-02-05T01:49:35.319Z,987.54
2019-02-05T01:50:34.936Z,987.55
2019-02-05T01:51:35.284Z,987.61
2019-02-05T01:52:35.603Z,987.60
2019-02-05T01:53:35.230Z,987.60
2019-02-05T01:54:34.669Z,987.59
2019-02-05T01:55:35.346Z,987.61
2019-02-05T01:56:40.917Z,987.62
2019-02-05T01:57:34.586Z,987.67
2019-02-05T01:58:35.099Z,987.66
2019-02-05T01:59:34.553Z,987.68
2019-02-05T02:00:35.477Z,987.68
2019-02-05T02:01:35.063Z,987.68
2019-02-05T02:02:34.986Z,987.72
2019-02-05T02:03:34.848Z,987.70
2019-02-05T02:04:34.414Z,987.69
2019-02-05T02:05:34.391Z,987.68
2019-02-05T02:06:35.017Z,987.71
2019-02-05T02:07:34.310Z,987.71
2019-02-05T02:08:34.314Z,987.71
2019-02-05T02:09:34.337Z,987.73
2019-02-05T02:10:34.784Z,987.71
2019-02-05T02:11:34.389Z,987.73
2019-02-05T02:12:35.182Z,987.76
2019-02-05T02:13:34.162Z,987.75
2019-02-05T02:14:34.739Z,987.76
2019-02-05T02:15:34.553Z,987.74
2019-02-05T02:16:34.652Z,987.73
2019-02-05T02:17:34.366Z,987.75
2019-02-05T02:18:34.599Z,987.77
2019-02-05T02:19:34.024Z,987.76
2019-02-05T02:20:34.511Z,987.81
2019-02-05T02:21:34.751Z,987.80
2019-02-05T02:22:35.065Z,987.80
2019-02-05T02:23:34.016Z,987.83
2019-02-05T02:24:34.812Z,987.87
2019-02-05T02:25:34.530Z,987.88
2019-02-05T02:26:34.616Z,987.86
2019-02-05T02:27:35.311Z,987.89
2019-02-05T02:28:34.995Z,987.89
2019-02-05T02:29:34.267Z,987.91
2019-02-05T02:30:35.021Z,987.91
2019-02-05T02:31:34.440Z,987.95
2019-02-05T02:32:34.266Z,987.95
2019-02-05T02:33:34.408Z,987.93
2019-02-05T02:34:33.998Z,987.93
2019-02-05T02:35:34.146Z,987.95
2019-02-05T02:36:33.997Z,987.97
2019-02-05T02:37:33.561Z,987.98
2019-02-05T02:38:34.176Z,987.98
2019-02-05T02:39:33.932Z,988.01
2019-02-05T02:42:33.691Z,987.99
